Time;durP1;ratioP1;P1;durP2;ratioP2;P2;SDS_P1;SDS_P2;PMS_P1;PMS_P2;Temp;Humidity;BMP_temperature;BMP_pressure;BME280_temperature;BME280_humidity;BME280_pressure;Samples;Min_cycle;Max_cycle;Signal;HPM_P1;HPM_P2
2022/10/18 00:00:37;;;;;;;18.10;8.02;;;;;;;10.17;54.73;101359.06;3145814;28;20422;-67
2022/10/18 00:02:09;;;;;;;15.35;7.90;;;;;;;10.12;54.80;101362.66;3146630;28;20052;-68
2022/10/18 00:03:41;;;;;;;13.52;7.38;;;;;;;10.08;55.04;101367.03;3146239;28;20433;-68
2022/10/18 00:05:13;;;;;;;13.27;6.82;;;;;;;10.05;55.09;101356.69;3145521;28;20506;-67
2022/10/18 00:06:44;;;;;;;13.20;7.70;;;;;;;9.99;55.27;101359.41;3146392;28;20049;-68
2022/10/18 00:08:17;;;;;;;22.98;7.07;;;;;;;9.96;55.22;101356.84;3146362;28;20502;-67
2022/10/18 00:09:50;;;;;;;14.60;7.07;;;;;;;9.90;55.17;101356.97;3145928;28;20071;-67
2022/10/18 00:11:22;;;;;;;16.10;8.13;;;;;;;9.87;55.42;101362.22;3146044;28;20052;-67
2022/10/18 00:12:54;;;;;;;13.30;6.70;;;;;;;9.83;55.61;101355.38;3145735;28;20464;-67
2022/10/18 00:14:26;;;;;;;13.30;6.75;;;;;;;9.79;55.50;101357.19;3146137;28;20048;-67
2022/10/18 00:15:59;;;;;;;12.95;6.63;;;;;;;9.76;55.54;101354.59;3146209;28;20513;-66
2022/10/18 00:17:30;;;;;;;16.17;7.07;;;;;;;9.70;55.74;101350.38;3146015;28;20509;-66
2022/10/18 01:03:06;;;;;;;18.02;7.25;;;;;;;9.41;55.31;101317.03;3145570;28;20076;-66
2022/10/18 01:04:37;;;;;;;17.63;6.95;;;;;;;9.43;55.67;101324.81;3145118;28;20105;-66
2022/10/18 01:06:10;;;;;;;14.55;7.25;;;;;;;9.43;55.42;101319.59;3145512;28;20171;-66
2022/10/18 01:08:15;;;;;;;19.02;8.48;;;;;;;9.43;55.13;101311.81;3145298;28;20049;-67
2022/10/18 01:09:51;;;;;;;;;;;;;;;9.31;55.55;101307.66;3146073;28;20057;-66
2022/10/18 01:11:39;;;;;;;14.82;7.40;;;;;;;9.30;55.68;101313.75;3145098;28;19924;-67
2022/10/18 01:13:23;;;;;;;12.38;7.15;;;;;;;9.33;55.61;101311.09;3145507;28;20056;-66
2022/10/18 01:15:02;;;;;;;12.32;6.93;;;;;;;9.34;55.60;101311.06;3145570;28;20536;-67
2022/10/18 01:16:43;;;;;;;18.48;7.47;;;;;;;9.37;55.49;101314.50;3144576;28;20505;-67
2022/10/18 01:18:23;;;;;;;15.95;7.05;;;;;;;9.38;55.64;101308.44;3145334;28;20093;-66
2022/10/18 01:20:39;;;;;;;11.95;7.28;;;;;;;9.40;55.25;101307.50;3145477;28;20473;-67
2022/10/18 01:22:15;;;;;;;;;;;;;;;9.28;55.34;101316.34;3145474;28;20106;-67
2022/10/18 01:24:40;;;;;;;13.35;6.43;;;;;;;9.29;55.47;101312.03;3145436;28;19924;-66
2022/10/18 01:26:24;;;;;;;16.02;6.82;;;;;;;9.29;55.50;101312.03;3144939;28;20053;-68
2022/10/18 01:28:04;;;;;;;15.93;7.32;;;;;;;9.29;55.47;101306.84;3144930;28;20544;-67
2022/10/18 01:29:49;;;;;;;14.82;6.65;;;;;;;9.31;55.66;101307.66;3145322;28;20526;-67
2022/10/18 01:31:26;;;;;;;14.30;7.25;;;;;;;9.30;55.53;101304.22;3144970;28;20485;-67
2022/10/18 01:33:02;;;;;;;14.25;6.53;;;;;;;9.32;55.38;101302.44;3145381;28;20062;-67
2022/10/18 01:34:38;;;;;;;17.20;7.45;;;;;;;9.34;55.55;101308.47;3144864;28;20063;-66
2022/10/18 01:36:17;;;;;;;14.60;7.30;;;;;;;9.37;55.54;101309.31;3144978;28;20045;-67
2022/10/18 01:37:49;;;;;;;13.75;7.13;;;;;;;9.34;55.38;101305.88;3144449;28;20052;-67
2022/10/18 01:39:28;;;;;;;16.92;7.78;;;;;;;9.39;55.38;101304.94;3143781;28;20036;-66
2022/10/18 01:41:02;;;;;;;16.73;6.72;;;;;;;9.38;55.48;101304.09;3144173;28;20891;-67
2022/10/18 01:42:35;;;;;;;12.23;6.38;;;;;;;9.38;55.60;101303.25;3144225;28;20055;-68
2022/10/18 01:44:10;;;;;;;13.88;6.18;;;;;;;9.39;55.43;101305.81;3139818;28;20675;-67
2022/10/18 01:45:41;;;;;;;17.88;7.35;;;;;;;9.34;55.77;101307.59;3144303;28;20125;-67
2022/10/18 01:47:16;;;;;;;16.70;7.45;;;;;;;9.29;55.68;101301.66;3143737;28;20048;-68
2022/10/18 01:48:48;;;;;;;13.60;6.93;;;;;;;9.24;55.71;101303.44;3144054;28;20527;-67
2022/10/18 01:50:29;;;;;;;13.70;6.97;;;;;;;9.10;55.69;101286.31;3143816;28;20049;-67
2022/10/18 01:52:01;;;;;;;15.00;7.00;;;;;;;9.21;55.93;101308.69;3140883;28;20044;-66
2022/10/18 01:53:34;;;;;;;16.10;7.80;;;;;;;9.22;55.93;101308.66;3143481;28;20059;-66
2022/10/18 01:55:06;;;;;;;13.13;7.05;;;;;;;9.22;55.81;101300.88;3143913;28;20068;-66
2022/10/18 01:56:46;;;;;;;13.25;6.75;;;;;;;9.25;55.69;101306.00;3143833;28;20489;-66
2022/10/18 01:58:22;;;;;;;15.55;7.65;;;;;;;9.25;55.87;101303.41;3143596;28;20060;-66
2022/10/18 02:00:00;;;;;;;12.60;7.18;;;;;;;9.28;55.90;101295.56;3144969;28;20044;-65
2022/10/18 02:01:41;;;;;;;14.98;7.57;;;;;;;9.30;55.58;101296.41;3137814;28;20044;-67
2022/10/18 02:03:21;;;;;;;16.80;6.90;;;;;;;9.30;55.81;101298.16;3136210;28;20488;-66
2022/10/18 02:04:59;;;;;;;14.18;6.70;;;;;;;9.31;55.75;101298.13;3144758;28;20541;-66
2022/10/18 02:06:38;;;;;;;14.75;6.30;;;;;;;9.32;55.71;101296.41;3135598;28;20433;-66
2022/10/18 02:08:17;;;;;;;13.55;7.10;;;;;;;9.30;55.70;101299.00;3144654;28;20052;-66
2022/10/18 02:09:57;;;;;;;11.05;6.60;;;;;;;9.31;55.80;101298.13;3141298;28;20048;-66
2022/10/18 02:11:33;;;;;;;20.67;7.00;;;;;;;9.30;55.60;101295.56;3144539;28;20443;-66
2022/10/18 02:13:05;;;;;;;13.77;7.03;;;;;;;9.30;55.76;101288.59;3144935;28;20135;-67
2022/10/18 02:14:36;;;;;;;13.43;6.85;;;;;;;9.29;55.69;101281.69;3144629;28;20052;-67
2022/10/18 02:16:12;;;;;;;14.70;6.53;;;;;;;9.29;55.52;101279.09;3144555;28;20186;-67
2022/10/18 02:17:46;;;;;;;11.65;6.25;;;;;;;9.23;55.32;101273.13;3145025;28;20048;-66
2022/10/18 02:19:22;;;;;;;;;;;;;;;9.15;55.28;101270.66;3145272;28;20123;-66
2022/10/18 02:20:55;;;;;;;12.05;6.35;;;;;;;9.16;55.57;101268.91;3144721;28;19920;-66
2022/10/18 02:22:28;;;;;;;;;;;;;;;9.15;55.14;101278.47;3144960;28;20124;-66
2022/10/18 02:24:02;;;;;;;9.50;5.82;;;;;;;9.15;55.49;101273.25;3144424;28;19940;-68
2022/10/18 02:25:35;;;;;;;14.25;6.45;;;;;;;9.19;55.32;101280.13;3144623;28;20756;-67
2022/10/18 02:27:08;;;;;;;12.70;6.00;;;;;;;9.21;55.19;101280.97;3144592;28;20048;-67
2022/10/18 02:28:40;;;;;;;12.38;6.47;;;;;;;9.22;55.01;101285.25;3144886;28;20149;-67
2022/10/18 02:30:14;;;;;;;14.20;6.30;;;;;;;9.24;55.36;101282.66;3144909;28;20109;-67
2022/10/18 02:31:46;;;;;;;;;;;;;;;9.17;54.94;101281.03;3144858;28;20089;-67
2022/10/18 02:33:24;;;;;;;11.02;5.78;;;;;;;9.15;55.24;101280.22;3144596;28;20332;-67
2022/10/18 02:35:03;;;;;;;13.57;6.57;;;;;;;9.04;55.03;101254.38;3144435;28;20048;-67
2022/10/18 02:36:41;;;;;;;15.73;5.93;;;;;;;9.17;55.32;101284.50;3144657;28;20044;-67
2022/10/18 02:38:16;;;;;;;10.60;5.75;;;;;;;9.16;55.24;101282.75;3144639;28;20079;-67
2022/10/18 02:39:50;;;;;;;12.93;6.00;;;;;;;9.17;55.09;101281.91;3144178;28;20076;-67
2022/10/18 02:41:23;;;;;;;10.85;6.10;;;;;;;9.19;55.15;101284.47;3144545;28;20044;-67
2022/10/18 02:42:57;;;;;;;11.13;5.72;;;;;;;9.15;55.06;101283.66;3144935;28;20063;-67
2022/10/18 02:44:28;;;;;;;10.90;5.72;;;;;;;9.19;55.04;101284.47;3144613;28;20048;-67
2022/10/18 02:46:01;;;;;;;10.18;5.53;;;;;;;9.20;55.11;101283.56;3144667;28;20044;-67
2022/10/18 02:47:33;;;;;;;12.68;5.93;;;;;;;9.22;55.09;101289.63;3144558;28;20135;-66
2022/10/18 02:49:05;;;;;;;11.32;5.95;;;;;;;9.21;54.93;101287.91;3144783;28;20056;-67
2022/10/18 02:50:38;;;;;;;12.48;5.15;;;;;;;9.20;55.16;101291.38;3142400;28;20125;-66
2022/10/18 02:52:10;;;;;;;11.25;5.35;;;;;;;9.18;54.96;101291.41;3142963;28;20118;-66
2022/10/18 02:53:42;;;;;;;11.95;5.22;;;;;;;9.18;55.00;101291.41;3144360;28;20080;-66
2022/10/18 02:55:14;;;;;;;10.55;6.25;;;;;;;9.19;55.13;101294.84;3144476;28;20081;-66
2022/10/18 02:56:46;;;;;;;12.43;6.30;;;;;;;9.19;54.93;101290.50;3144485;28;20049;-66
2022/10/18 02:58:17;;;;;;;11.80;5.57;;;;;;;9.18;54.95;101296.59;3144177;28;20048;-66
2022/10/18 02:59:49;;;;;;;12.90;6.35;;;;;;;9.18;55.07;101296.59;3144542;28;20418;-66
2022/10/18 03:01:21;;;;;;;10.60;5.55;;;;;;;9.16;55.00;101295.75;3144443;28;20045;-66
2022/10/18 03:02:53;;;;;;;15.30;6.63;;;;;;;9.13;55.13;101295.81;3143930;28;20075;-67
2022/10/18 03:04:25;;;;;;;13.07;6.85;;;;;;;9.09;55.23;101299.34;3144346;28;20620;-66
2022/10/18 03:05:58;;;;;;;11.07;5.88;;;;;;;9.07;55.30;101301.09;3144159;28;20528;-66
2022/10/18 03:07:30;;;;;;;11.02;6.00;;;;;;;9.03;55.42;101305.50;3144446;28;20056;-66
2022/10/18 03:09:03;;;;;;;16.05;6.00;;;;;;;8.97;55.26;101305.59;3144406;28;20088;-66
2022/10/18 03:10:35;;;;;;;13.57;5.82;;;;;;;8.92;55.61;101302.19;3143809;28;20515;-66
2022/10/18 03:12:07;;;;;;;11.27;5.97;;;;;;;8.91;55.59;101308.28;3144553;28;20055;-66
2022/10/18 03:13:39;;;;;;;13.60;6.03;;;;;;;8.88;55.62;101309.16;3144470;28;20441;-67
2022/10/18 03:15:11;;;;;;;12.80;6.32;;;;;;;8.84;55.67;101315.31;3144359;28;20045;-67
2022/10/18 03:16:43;;;;;;;11.23;5.88;;;;;;;8.83;55.75;101310.97;3144525;28;20098;-67
2022/10/18 03:18:15;;;;;;;10.20;5.65;;;;;;;8.72;55.85;101288.63;3144244;28;20102;-67
2022/10/18 03:19:47;;;;;;;12.52;6.38;;;;;;;8.85;55.94;101316.16;3144504;28;20068;-67
2022/10/18 03:21:20;;;;;;;12.07;6.15;;;;;;;8.88;55.81;101311.75;3144332;28;20049;-67
2022/10/18 03:22:52;;;;;;;12.70;6.10;;;;;;;8.86;55.93;101316.13;3144060;28;20135;-67
2022/10/18 03:24:24;;;;;;;13.63;5.97;;;;;;;8.87;55.88;101314.38;3144587;28;20193;-66
2022/10/18 03:25:55;;;;;;;14.85;6.22;;;;;;;8.84;56.09;101311.81;3144085;28;20111;-66
2022/10/18 03:27:27;;;;;;;15.65;6.85;;;;;;;8.83;56.03;101312.72;3143996;28;20553;-66
2022/10/18 03:28:58;;;;;;;16.52;7.25;;;;;;;8.81;55.99;101315.31;3144068;28;20048;-66
2022/10/18 03:30:30;;;;;;;14.40;7.20;;;;;;;8.80;56.14;101313.59;3144180;28;20165;-66
2022/10/18 03:32:02;;;;;;;18.63;7.30;;;;;;;8.75;55.98;101312.81;3144479;28;20059;-66
2022/10/18 03:33:34;;;;;;;10.98;6.40;;;;;;;8.76;56.00;101316.28;3144174;28;20110;-66
2022/10/18 03:35:08;;;;;;;15.85;6.53;;;;;;;8.64;56.42;101312.97;3143990;28;20166;-66
2022/10/18 03:36:41;;;;;;;13.02;6.95;;;;;;;8.65;56.35;101319.88;3143564;28;20094;-66
2022/10/18 03:38:12;;;;;;;14.50;6.82;;;;;;;8.58;56.45;101318.25;3143955;28;20048;-66
2022/10/18 03:39:43;;;;;;;15.05;6.38;;;;;;;8.50;56.52;101301.88;3144919;28;20052;-66
2022/10/18 03:41:15;;;;;;;17.63;6.78;;;;;;;8.51;56.20;101311.38;3146243;28;20074;-66
2022/10/18 03:42:47;;;;;;;14.43;6.85;;;;;;;8.49;56.57;101314.88;3146650;28;20048;-68
2022/10/18 03:44:19;;;;;;;12.02;6.38;;;;;;;8.42;56.71;101312.34;3146175;28;20045;-67
2022/10/18 03:45:50;;;;;;;13.65;7.05;;;;;;;8.42;56.57;101319.28;3146612;28;20154;-67
2022/10/18 03:47:22;;;;;;;12.93;6.20;;;;;;;8.36;56.73;101312.41;3146357;28;20045;-67
2022/10/18 03:48:54;;;;;;;13.32;6.20;;;;;;;8.37;56.77;101313.25;3146526;28;20056;-67
2022/10/18 03:50:25;;;;;;;10.25;5.60;;;;;;;8.31;56.87;101314.22;3145824;28;20059;-67
2022/10/18 03:51:58;;;;;;;9.85;5.65;;;;;;;8.25;56.78;101303.00;3142918;28;20532;-67
2022/10/18 03:53:30;;;;;;;12.98;6.18;;;;;;;8.27;57.00;101317.69;3146538;28;20056;-67
2022/10/18 03:55:00;;;;;;;13.57;6.85;;;;;;;8.24;57.04;101316.88;3146257;28;20075;-67
2022/10/18 03:56:33;;;;;;;13.15;6.20;;;;;;;8.23;56.88;101323.81;3145396;28;20044;-67
2022/10/18 03:58:04;;;;;;;11.25;6.10;;;;;;;8.19;57.07;101325.59;3146020;28;20612;-67
2022/10/18 03:59:35;;;;;;;20.30;6.00;;;;;;;8.16;57.24;101323.03;3145819;28;20052;-67
2022/10/18 04:01:06;;;;;;;13.50;6.13;;;;;;;8.12;57.26;101315.28;3145556;28;20056;-67
2022/10/18 04:02:38;;;;;;;15.40;6.40;;;;;;;8.11;57.08;101317.03;3144510;28;20053;-67
2022/10/18 04:04:10;;;;;;;14.48;6.75;;;;;;;8.02;57.42;101303.28;3144777;28;20059;-67
2022/10/18 04:05:41;;;;;;;11.00;6.07;;;;;;;8.07;57.34;101311.88;3145069;28;20098;-71
2022/10/18 04:07:15;;;;;;;10.40;6.53;;;;;;;8.07;57.40;101314.47;3144556;28;20111;-70
2022/10/18 04:08:47;;;;;;;10.18;5.63;;;;;;;8.06;57.25;101312.75;3145261;28;20441;-70
2022/10/18 04:10:18;;;;;;;13.40;6.80;;;;;;;8.05;57.39;101316.22;3145235;28;20052;-70
2022/10/18 04:11:50;;;;;;;9.98;6.07;;;;;;;8.04;57.51;101311.91;3144939;28;20098;-69
2022/10/18 04:13:21;;;;;;;16.40;6.28;;;;;;;8.01;57.51;101305.00;3142518;28;20048;-71
2022/10/18 04:14:53;;;;;;;12.88;6.70;;;;;;;7.97;57.48;101305.91;3145299;28;20539;-70
2022/10/18 04:16:25;;;;;;;11.98;6.80;;;;;;;7.94;57.48;101303.38;3145195;28;20044;-66
2022/10/18 04:17:57;;;;;;;16.85;7.55;;;;;;;7.81;57.63;101284.47;3145049;28;20052;-66
2022/10/18 04:19:29;;;;;;;13.98;7.35;;;;;;;7.92;57.52;101305.09;3145023;28;20110;-65
2022/10/18 04:21:00;;;;;;;15.93;6.30;;;;;;;7.90;57.63;101307.72;3144827;28;20050;-67
2022/10/18 04:22:34;;;;;;;12.38;6.25;;;;;;;7.90;57.82;101306.88;3145166;28;20052;-67
2022/10/18 04:24:06;;;;;;;;;;;;;;;7.81;57.74;101307.81;3144744;28;20437;-66
2022/10/18 04:25:37;;;;;;;58.17;31.10;;;;;;;7.79;58.12;101300.94;3144067;28;19928;-65
2022/10/18 04:27:09;;;;;;;71.25;33.50;;;;;;;7.89;57.85;101302.53;3144407;28;20044;-66
2022/10/18 04:28:44;;;;;;;13.98;7.70;;;;;;;7.96;57.82;101302.47;3144748;28;20052;-66
2022/10/18 04:30:15;;;;;;;23.40;13.10;;;;;;;8.02;57.76;101301.56;3144729;28;20048;-66
2022/10/18 04:31:46;;;;;;;15.55;8.07;;;;;;;8.06;57.79;101308.41;3144648;28;20177;-66
2022/10/18 04:33:17;;;;;;;14.15;7.53;;;;;;;8.08;57.66;101311.00;3144160;28;20048;-64
2022/10/18 04:34:49;;;;;;;14.60;7.47;;;;;;;8.08;57.70;101305.81;3145158;28;20414;-69
2022/10/18 04:36:21;;;;;;;10.63;6.55;;;;;;;8.04;57.63;101302.38;3144768;28;20048;-66
2022/10/18 04:37:54;;;;;;;17.95;6.88;;;;;;;8.01;57.75;101304.16;3145419;28;20456;-66
2022/10/18 04:39:26;;;;;;;13.48;6.82;;;;;;;7.97;57.65;101304.19;3145988;28;20055;-72
2022/10/18 04:40:58;;;;;;;11.85;6.65;;;;;;;7.94;57.81;101305.94;3145583;28;20049;-72
2022/10/18 04:42:29;;;;;;;14.48;6.88;;;;;;;7.95;57.79;101308.53;3145731;28;20045;-72
2022/10/18 04:44:01;;;;;;;13.02;5.88;;;;;;;7.96;57.61;101307.66;3145991;28;20048;-69
2022/10/18 04:45:32;;;;;;;17.15;7.53;;;;;;;7.94;57.71;101309.41;3145474;28;20044;-70
2022/10/18 04:47:04;;;;;;;14.07;6.72;;;;;;;7.92;57.94;101311.13;3145443;28;20041;-66
2022/10/18 04:48:36;;;;;;;15.48;6.55;;;;;;;7.92;57.70;101312.88;3145268;28;20041;-66
2022/10/18 04:50:08;;;;;;;13.50;6.53;;;;;;;7.90;57.83;101307.72;3145793;28;20052;-66
2022/10/18 04:51:40;;;;;;;13.82;6.50;;;;;;;7.89;58.06;101308.59;3134715;28;20137;-66
2022/10/18 04:53:13;;;;;;;14.88;6.60;;;;;;;7.92;57.93;101311.13;3145453;28;20053;-66
2022/10/18 04:54:45;;;;;;;14.50;7.00;;;;;;;7.87;58.09;101306.91;3146010;28;20134;-66
2022/10/18 04:56:17;;;;;;;16.35;6.78;;;;;;;7.94;58.22;101312.00;3145653;28;20040;-66
2022/10/18 04:57:48;;;;;;;17.08;6.60;;;;;;;7.97;58.08;101311.09;3145906;28;20055;-66
2022/10/18 04:59:20;;;;;;;17.85;6.65;;;;;;;8.01;57.97;101304.16;3145512;28;20414;-66
2022/10/18 05:00:52;;;;;;;13.38;6.82;;;;;;;7.97;57.81;101298.13;3145377;28;20441;-65
2022/10/18 05:02:24;;;;;;;22.52;6.72;;;;;;;8.06;58.12;101310.16;3145481;28;20096;-66
2022/10/18 05:03:56;;;;;;;12.93;6.30;;;;;;;8.10;57.80;101309.22;3145931;28;20045;-65
2022/10/18 05:05:28;;;;;;;15.93;6.63;;;;;;;8.11;57.71;101314.44;3144571;28;20515;-68
2022/10/18 05:07:00;;;;;;;12.90;6.63;;;;;;;8.11;57.58;101309.22;3144772;28;20048;-69
2022/10/18 05:08:34;;;;;;;13.68;6.53;;;;;;;8.10;57.50;101304.91;3144586;28;20048;-69
2022/10/18 05:10:07;;;;;;;15.88;6.70;;;;;;;8.12;57.51;101307.50;3144347;28;20053;-68
2022/10/18 05:11:39;;;;;;;13.13;5.93;;;;;;;8.10;57.59;101304.91;3143961;28;20117;-67
2022/10/18 05:13:11;;;;;;;12.45;7.07;;;;;;;8.12;57.49;101305.75;3144043;28;20133;-68
2022/10/18 05:14:43;;;;;;;21.25;7.63;;;;;;;8.13;57.58;101310.09;3145053;28;20068;-67
2022/10/18 05:16:15;;;;;;;17.13;6.88;;;;;;;8.15;57.40;101315.25;3144963;28;20060;-76
2022/10/18 05:17:47;;;;;;;104.65;49.58;;;;;;;8.17;57.38;101313.50;3144650;28;20131;-71
2022/10/18 05:19:19;;;;;;;47.38;24.02;;;;;;;8.20;57.54;101311.72;3145000;28;20052;-70
2022/10/18 05:20:51;;;;;;;69.28;38.58;;;;;;;8.18;57.35;101303.09;3145345;28;20493;-69
2022/10/18 05:22:23;;;;;;;58.08;27.33;;;;;;;8.27;57.57;101320.28;3144645;28;20040;-68
2022/10/18 05:23:56;;;;;;;26.05;10.48;;;;;;;8.29;57.46;101310.75;3145091;28;20052;-70
2022/10/18 05:25:28;;;;;;;;;;;;;;;8.26;57.14;101309.94;3144705;28;20048;-70
2022/10/18 05:27:00;;;;;;;30.90;14.98;;;;;;;8.24;57.40;101309.94;3138550;28;20389;-70
2022/10/18 05:28:31;;;;;;;13.73;7.78;;;;;;;8.28;57.22;101319.44;3144347;28;20098;-69
2022/10/18 05:30:04;;;;;;;18.95;7.22;;;;;;;8.33;57.14;101312.44;3144790;28;20105;-68
2022/10/18 05:31:36;;;;;;;13.82;6.82;;;;;;;8.36;57.17;101317.59;3145257;28;20055;-67
2022/10/18 05:33:08;;;;;;;11.88;6.68;;;;;;;8.42;57.09;101322.75;3145351;28;20056;-71
2022/10/18 05:34:40;;;;;;;12.43;6.22;;;;;;;8.36;56.84;101296.81;3145301;28;20130;-65
2022/10/18 05:36:12;;;;;;;11.70;6.30;;;;;;;8.47;56.79;101308.88;3145191;28;20502;-70
2022/10/18 05:37:43;;;;;;;14.18;6.32;;;;;;;8.51;56.95;101313.13;3145122;28;20052;-69
2022/10/18 05:39:17;;;;;;;14.43;5.95;;;;;;;8.58;56.88;101314.78;3145075;28;20125;-70
2022/10/18 05:40:49;;;;;;;17.23;7.40;;;;;;;8.67;56.85;101322.44;3144192;28;20052;-69
2022/10/18 05:42:20;;;;;;;17.88;6.20;;;;;;;8.76;56.72;101317.13;3144967;28;20502;-68
2022/10/18 05:43:52;;;;;;;15.48;7.07;;;;;;;8.88;56.83;101310.91;3145209;28;20049;-67
2022/10/18 05:45:24;;;;;;;15.90;6.18;;;;;;;9.02;56.62;101319.38;3144888;28;20113;-69
2022/10/18 05:46:56;;;;;;;16.52;6.20;;;;;;;9.19;56.50;101318.25;3144513;28;20094;-67
2022/10/18 05:48:28;;;;;;;14.60;6.80;;;;;;;9.37;56.16;101314.50;3144759;28;20041;-68
2022/10/18 05:50:00;;;;;;;12.85;5.90;;;;;;;9.56;55.84;101314.19;3144347;28;20165;-70
2022/10/18 05:51:32;;;;;;;16.92;6.95;;;;;;;9.83;55.94;101308.53;3144212;28;20044;-71
2022/10/18 05:53:04;;;;;;;15.48;5.80;;;;;;;10.22;55.24;101309.53;3145004;28;20044;-73
2022/10/18 05:54:37;;;;;;;19.27;6.75;;;;;;;10.76;54.51;101311.06;3145065;28;20450;-76
2022/10/18 05:56:10;;;;;;;12.90;6.47;;;;;;;11.44;53.32;101308.59;3142064;28;20068;-68
2022/10/18 05:57:42;;;;;;;13.27;6.22;;;;;;;12.19;51.39;101303.22;3144811;28;20056;-67
2022/10/18 05:59:14;;;;;;;19.90;6.40;;;;;;;13.07;49.83;101314.53;3144558;28;20040;-67
2022/10/18 06:00:46;;;;;;;13.93;6.53;;;;;;;13.88;48.37;101310.13;3144850;28;20117;-73
2022/10/18 06:02:18;;;;;;;14.70;5.82;;;;;;;14.73;46.87;101300.06;3144299;28;20056;-78
2022/10/18 06:03:50;;;;;;;13.00;6.35;;;;;;;15.47;45.27;101292.72;3145083;28;20776;-67
2022/10/18 06:05:21;;;;;;;12.65;6.10;;;;;;;16.35;44.05;101302.94;3144199;28;20043;-69
2022/10/18 06:06:54;;;;;;;16.05;6.05;;;;;;;17.14;42.48;101297.53;3144627;28;20437;-68
2022/10/18 06:08:25;;;;;;;16.38;6.38;;;;;;;17.93;41.27;101297.13;3144642;28;20048;-67
2022/10/18 06:09:59;;;;;;;12.20;6.22;;;;;;;18.74;39.80;101300.69;3144034;28;20067;-67
2022/10/18 06:11:32;;;;;;;17.13;6.72;;;;;;;19.50;38.52;101303.38;3143713;28;20541;-67
2022/10/18 06:13:04;;;;;;;23.60;7.38;;;;;;;20.13;37.66;101299.63;3143313;28;20114;-68
2022/10/18 06:14:36;;;;;;;16.77;7.55;;;;;;;20.73;36.30;101309.16;3143312;28;20071;-67
2022/10/18 06:16:09;;;;;;;17.45;7.07;;;;;;;21.34;35.42;101305.16;3143676;28;20114;-66
2022/10/18 06:17:40;;;;;;;19.05;8.25;;;;;;;21.97;34.75;101303.56;3143508;28;20052;-66
2022/10/18 06:19:12;;;;;;;13.95;6.65;;;;;;;22.57;33.65;101309.16;3143559;28;20049;-66
2022/10/18 06:20:44;;;;;;;15.43;8.07;;;;;;;23.11;32.97;101308.81;3139786;28;20109;-68
2022/10/18 06:22:16;;;;;;;14.30;6.75;;;;;;;23.59;31.66;101306.94;3143248;28;20052;-69
2022/10/18 06:23:48;;;;;;;11.73;6.32;;;;;;;24.04;30.91;101304.38;3143492;28;20472;-67
2022/10/18 06:25:22;;;;;;;17.70;6.45;;;;;;;24.48;30.77;101312.53;3143192;28;20048;-66
2022/10/18 06:26:53;;;;;;;12.70;6.25;;;;;;;24.82;30.33;101312.50;3144521;28;20052;-66
2022/10/18 06:28:26;;;;;;;14.75;5.57;;;;;;;25.06;29.72;101313.13;3144620;28;20060;-67
2022/10/18 06:29:57;;;;;;;14.05;5.95;;;;;;;25.37;29.29;101313.28;3144702;28;20128;-68
2022/10/18 06:31:29;;;;;;;14.63;5.95;;;;;;;25.62;28.62;101312.06;3144824;28;20414;-73
2022/10/18 06:33:01;;;;;;;10.10;5.65;;;;;;;25.95;28.14;101313.72;3144798;28;20049;-73
2022/10/18 06:34:33;;;;;;;15.80;6.13;;;;;;;26.29;27.74;101308.09;3144561;28;20070;-70
2022/10/18 06:36:07;;;;;;;8.18;4.82;;;;;;;26.63;27.20;101318.53;3144932;28;20048;-71
2022/10/18 06:37:39;;;;;;;10.20;5.07;;;;;;;26.91;26.49;101317.72;3144596;28;20054;-70
2022/10/18 06:39:11;;;;;;;11.57;4.60;;;;;;;27.14;25.92;101304.94;3144154;28;20048;-71
2022/10/18 06:40:44;;;;;;;6.35;3.92;;;;;;;27.26;25.60;101311.03;3143751;28;20193;-70
2022/10/18 06:42:16;;;;;;;7.78;4.72;;;;;;;27.36;25.48;101319.91;3143794;28;20060;-70
2022/10/18 06:43:49;;;;;;;8.48;5.13;;;;;;;27.56;25.38;101303.81;3143677;28;20065;-69
2022/10/18 06:45:21;;;;;;;15.25;4.68;;;;;;;27.88;24.71;101311.53;3143491;28;20052;-69
2022/10/18 06:46:52;;;;;;;7.70;4.45;;;;;;;28.16;24.22;101314.25;3143355;28;20510;-69
2022/10/18 06:48:24;;;;;;;13.18;5.35;;;;;;;28.31;24.32;101310.97;3142257;28;20087;-70
2022/10/18 06:49:56;;;;;;;8.15;4.47;;;;;;;28.66;23.72;101317.44;3143490;28;20040;-70
2022/10/18 06:51:28;;;;;;;9.98;4.75;;;;;;;29.04;23.38;101312.81;3134180;28;20118;-70
2022/10/18 06:53:02;;;;;;;12.85;5.32;;;;;;;29.44;22.84;101311.50;3142378;28;20114;-71
2022/10/18 06:54:34;;;;;;;8.32;5.20;;;;;;;29.80;22.46;101306.09;3141443;28;20048;-70
2022/10/18 06:56:10;;;;;;;7.53;4.75;;;;;;;30.15;22.20;101313.19;3144444;28;20057;-70
2022/10/18 06:57:42;;;;;;;12.10;5.35;;;;;;;30.46;21.66;101318.88;3143278;28;20449;-69
2022/10/18 06:59:14;;;;;;;7.85;4.82;;;;;;;30.65;21.11;101303.50;3143466;28;20445;-72
2022/10/18 07:00:55;;;;;;;14.25;4.93;;;;;;;30.75;21.31;101312.25;3143879;28;20117;-75
2022/10/18 07:02:27;;;;;;;11.90;4.47;;;;;;;30.53;20.91;101311.84;3134337;28;20546;-73
2022/10/18 07:03:59;;;;;;;11.40;5.03;;;;;;;29.93;20.89;101303.81;3135824;28;20579;-74
2022/10/18 07:05:31;;;;;;;10.07;4.95;;;;;;;29.61;21.22;101302.59;3139204;28;20060;-70
2022/10/18 07:07:03;;;;;;;7.57;3.97;;;;;;;29.33;21.64;101301.84;3137124;28;20528;-72
2022/10/18 07:08:36;;;;;;;11.05;4.63;;;;;;;29.30;21.27;101301.31;3143632;28;20090;-70
2022/10/18 07:10:09;;;;;;;7.28;4.80;;;;;;;29.43;21.32;101299.06;3144448;28;20445;-71
2022/10/18 07:11:42;;;;;;;13.25;4.90;;;;;;;29.66;21.37;101297.59;3143471;28;20060;-71
2022/10/18 07:13:13;;;;;;;;;;;;;;;30.12;21.72;101298.22;3144790;28;20087;-71
2022/10/18 07:14:46;;;;;;;14.98;5.35;;;;;;;30.33;21.21;101297.84;3145228;28;19924;-69
2022/10/18 07:16:19;;;;;;;16.20;5.15;;;;;;;30.59;20.91;101296.91;3147041;28;20048;-68
2022/10/18 07:17:51;;;;;;;10.63;5.30;;;;;;;30.93;20.37;101299.53;3146773;28;20052;-70
2022/10/18 07:19:23;;;;;;;14.68;5.40;;;;;;;31.26;20.10;101294.16;3146990;28;20110;-67
2022/10/18 07:20:55;;;;;;;14.70;5.88;;;;;;;31.46;19.66;101284.78;3146363;28;20048;-67
2022/10/18 07:22:26;;;;;;;10.80;5.63;;;;;;;31.28;19.59;101292.16;3137999;28;20045;-69
2022/10/18 07:23:58;;;;;;;15.05;6.38;;;;;;;30.91;19.53;101295.31;3147994;28;20109;-72
2022/10/18 07:25:31;;;;;;;19.13;5.32;;;;;;;30.65;19.87;101285.50;3147872;28;20102;-67
2022/10/18 07:27:04;;;;;;;17.90;5.68;;;;;;;30.72;20.08;101283.00;3147541;28;20101;-72
2022/10/18 07:28:36;;;;;;;;;;;;;;;30.78;20.35;101279.63;3146508;28;20052;-70
2022/10/18 07:30:10;;;;;;;16.52;5.45;;;;;;;30.21;19.91;101279.47;3146835;28;19920;-69
2022/10/18 07:31:41;;;;;;;16.92;5.25;;;;;;;29.84;20.23;101281.44;3145763;28;20456;-69
2022/10/18 07:33:13;;;;;;;13.05;5.55;;;;;;;29.45;20.65;101276.44;3146447;28;20048;-72
2022/10/18 07:34:45;;;;;;;12.45;5.53;;;;;;;28.89;20.59;101269.56;3146685;28;20049;-71
2022/10/18 07:36:17;;;;;;;11.05;5.00;;;;;;;28.31;21.03;101273.44;3146797;28;20052;-70
2022/10/18 07:37:49;;;;;;;14.30;5.72;;;;;;;27.84;21.66;101268.16;3146544;28;20059;-71
2022/10/18 07:39:21;;;;;;;17.17;5.75;;;;;;;27.78;21.82;101271.41;3146491;28;20135;-70
2022/10/18 07:40:56;;;;;;;15.20;5.53;;;;;;;28.04;22.02;101268.06;3146222;28;20105;-70
2022/10/18 07:42:30;;;;;;;14.85;5.78;;;;;;;27.96;21.91;101263.47;3146538;28;20040;-70
2022/10/18 07:44:02;;;;;;;17.52;10.98;;;;;;;27.82;22.32;101270.13;3146539;28;20437;-70
2022/10/18 07:45:33;;;;;;;14.68;5.35;;;;;;;27.94;22.37;101272.63;3146132;28;20127;-68
2022/10/18 07:47:05;;;;;;;12.80;5.57;;;;;;;28.00;22.44;101256.81;3146430;28;20056;-73
2022/10/18 07:48:37;;;;;;;15.35;5.18;;;;;;;27.92;22.44;101259.38;3146210;28;20040;-70
2022/10/18 07:50:10;;;;;;;14.90;6.30;;;;;;;27.62;22.29;101257.75;3146238;28;20048;-69
2022/10/18 07:51:41;;;;;;;12.35;6.05;;;;;;;27.31;22.82;101255.28;3136824;28;20049;-69
2022/10/18 07:53:13;;;;;;;18.00;9.35;;;;;;;27.12;23.17;101249.91;3146291;28;20056;-70
2022/10/18 07:54:45;;;;;;;16.48;5.57;;;;;;;27.01;22.80;101253.59;3138584;28;20502;-69
2022/10/18 07:56:19;;;;;;;10.82;4.82;;;;;;;26.90;22.98;101251.88;3146437;28;20040;-69
2022/10/18 07:57:52;;;;;;;10.45;4.78;;;;;;;26.90;23.61;101245.69;3146417;28;20136;-69